createdAt,value
2022-09-28T00:04:11.520Z,0.50
2022-09-28T00:09:17.229Z,0.50
2022-09-28T00:14:18.791Z,0.60
2022-09-28T00:19:20.346Z,0.80
2022-09-28T00:24:26.606Z,0.38
2022-09-28T00:29:31.749Z,0.50
2022-09-28T00:34:36.905Z,0.40
2022-09-28T00:39:41.356Z,0.50
2022-09-28T00:44:48.087Z,0.70
2022-09-28T00:50:18.135Z,0.80
2022-09-28T01:00:24.676Z,0.60
2022-09-28T01:05:27.537Z,0.90
2022-09-28T01:10:31.450Z,0.98
2022-09-28T01:15:40.142Z,1.00
2022-09-28T01:20:57.101Z,1.02
2022-09-28T01:26:33.220Z,1.35
2022-09-28T01:31:41.824Z,1.20
2022-09-28T01:36:51.981Z,1.30
2022-09-28T01:41:57.688Z,1.50
2022-09-28T01:47:04.263Z,2.10
2022-09-28T01:52:15.103Z,1.75
2022-09-28T01:57:25.033Z,2.53
2022-09-28T02:02:33.986Z,2.15
2022-09-28T02:07:43.646Z,1.85
2022-09-28T02:13:11.132Z,2.22
2022-09-28T02:18:13.378Z,2.20
2022-09-28T02:23:16.129Z,2.17
2022-09-28T02:28:17.869Z,3.53
2022-09-28T02:33:32.123Z,2.53
2022-09-28T02:38:34.205Z,1.80
2022-09-28T02:43:48.816Z,2.08
2022-09-28T02:49:26.470Z,1.60
2022-09-28T02:54:55.511Z,1.70
2022-09-28T03:00:16.107Z,1.42
2022-09-28T03:05:22.829Z,1.55
2022-09-28T03:10:46.711Z,1.63
2022-09-28T03:15:49.421Z,1.35
2022-09-28T03:20:52.615Z,1.48
2022-09-28T03:25:54.828Z,1.77
2022-09-28T03:30:56.763Z,1.80
2022-09-28T03:35:58.375Z,1.52
2022-09-28T03:41:00.781Z,1.63
2022-09-28T03:46:08.413Z,5.03
2022-09-28T03:51:15.353Z,5.13
2022-09-28T03:56:17.477Z,3.58
2022-09-28T04:01:19.234Z,4.63
2022-09-28T04:06:23.130Z,3.35
2022-09-28T04:11:24.852Z,3.65
2022-09-28T04:16:26.823Z,4.25
2022-09-28T04:21:37.480Z,3.58
2022-09-28T04:26:43.983Z,2.70
2022-09-28T04:31:49.757Z,3.60
2022-09-28T04:36:51.899Z,4.88
2022-09-28T04:41:53.979Z,7.72
2022-09-28T04:46:55.951Z,6.50
2022-09-28T04:52:04.747Z,9.68
2022-09-28T04:57:09.266Z,6.53
2022-09-28T05:02:15.107Z,11.63
2022-09-28T05:07:35.535Z,5.55
2022-09-28T05:12:38.907Z,13.77
2022-09-28T05:17:40.452Z,9.95
2022-09-28T05:22:54.903Z,10.18
2022-09-28T05:27:57.402Z,16.60
2022-09-28T05:33:19.271Z,7.97
2022-09-28T05:38:30.399Z,5.28
2022-09-28T05:43:32.735Z,6.50
2022-09-28T05:48:34.387Z,7.97
2022-09-28T05:53:36.968Z,10.80
2022-09-28T05:58:39.227Z,8.48
2022-09-28T06:03:41.031Z,6.05
2022-09-28T06:08:46.366Z,16.17
2022-09-28T06:14:07.608Z,7.82
2022-09-28T06:19:09.673Z,11.50
2022-09-28T06:24:37.340Z,6.35
2022-09-28T06:29:38.941Z,4.80
2022-09-28T06:34:42.035Z,4.53
2022-09-28T06:39:43.940Z,4.30
2022-09-28T06:44:46.292Z,3.90
2022-09-28T06:49:59.210Z,3.15
2022-09-28T06:55:24.036Z,4.10
2022-09-28T07:00:32.916Z,4.40
2022-09-28T07:05:37.457Z,3.67
2022-09-28T07:11:12.386Z,3.75
2022-09-28T07:16:39.543Z,4.05
2022-09-28T07:22:01.106Z,4.65
2022-09-28T07:27:06.767Z,4.93
2022-09-28T07:32:12.771Z,4.18
2022-09-28T07:37:37.120Z,4.22
2022-09-28T07:42:38.822Z,4.38
2022-09-28T07:47:40.772Z,3.45
2022-09-28T07:53:04.780Z,3.88
2022-09-28T07:58:16.160Z,4.93
2022-09-28T08:03:25.171Z,4.55
2022-09-28T08:08:30.050Z,4.25
2022-09-28T08:13:32.782Z,4.40
2022-09-28T08:18:54.270Z,4.53
2022-09-28T08:23:56.324Z,4.63
2022-09-28T08:29:03.951Z,3.97
2022-09-28T08:34:31.543Z,4.75
2022-09-28T08:39:53.475Z,3.88
2022-09-28T08:45:15.406Z,3.75
2022-09-28T08:51:00.834Z,3.60
2022-09-28T08:56:44.772Z,3.25
2022-09-28T09:01:57.740Z,3.35
2022-09-28T09:07:24.016Z,2.85
2022-09-28T09:13:01.136Z,2.92
2022-09-28T09:18:25.689Z,2.38
2022-09-28T09:23:57.558Z,2.72
2022-09-28T09:29:17.156Z,2.20
2022-09-28T09:34:26.355Z,2.70
2022-09-28T09:39:58.174Z,2.42
2022-09-28T09:45:48.524Z,2.38
2022-09-28T09:51:44.546Z,2.33
2022-09-28T09:57:03.873Z,2.03
2022-09-28T10:02:39.429Z,2.30
2022-09-28T10:07:58.830Z,1.80
2022-09-28T10:13:01.348Z,1.83
2022-09-28T10:18:10.125Z,1.90
2022-09-28T10:23:37.821Z,2.30
2022-09-28T10:28:52.227Z,2.05
2022-09-28T10:33:57.599Z,1.85
2022-09-28T10:38:59.588Z,1.55
2022-09-28T10:44:34.978Z,1.60
2022-09-28T10:49:50.556Z,1.90
2022-09-28T10:54:59.084Z,1.40
2022-09-28T11:00:06.891Z,1.40
2022-09-28T11:05:24.855Z,1.45
2022-09-28T11:10:33.980Z,1.73
2022-09-28T11:15:55.501Z,1.77
2022-09-28T11:21:32.047Z,1.70
2022-09-28T11:26:40.914Z,1.90
2022-09-28T11:31:46.168Z,1.60
2022-09-28T11:37:12.677Z,1.70
2022-09-28T11:42:43.650Z,1.23
2022-09-28T11:48:13.147Z,0.98
2022-09-28T11:54:14.203Z,1.50
2022-09-28T11:59:34.693Z,1.67
2022-09-28T12:04:44.396Z,0.93
2022-09-28T12:15:19.838Z,1.08
2022-09-28T12:20:29.342Z,1.17
2022-09-28T12:25:39.595Z,1.20
2022-09-28T12:30:43.838Z,1.50
2022-09-28T12:36:06.781Z,1.20
2022-09-28T12:41:52.863Z,1.42
2022-09-28T12:47:06.167Z,1.13
2022-09-28T12:52:27.239Z,1.23
2022-09-28T12:57:37.534Z,1.00
2022-09-28T13:03:13.438Z,0.90
2022-09-28T13:08:20.745Z,1.10
2022-09-28T13:13:42.516Z,0.88
2022-09-28T13:18:57.489Z,0.90
2022-09-28T13:24:27.965Z,0.90
2022-09-28T13:29:27.486Z,0.85
2022-09-28T13:34:33.446Z,1.10
2022-09-28T13:39:37.517Z,0.98
2022-09-28T13:44:59.450Z,0.80
2022-09-28T13:50:26.883Z,0.90
2022-09-28T13:55:53.884Z,0.77
2022-09-28T14:01:16.685Z,0.75
2022-09-28T14:06:25.522Z,0.80
2022-09-28T14:11:27.002Z,0.88
2022-09-28T14:16:33.273Z,0.60
2022-09-28T14:22:09.652Z,0.90
2022-09-28T14:27:17.436Z,0.50
2022-09-28T14:32:24.498Z,0.73
2022-09-28T14:37:50.138Z,0.75
2022-09-28T14:43:24.210Z,0.93
2022-09-28T14:49:05.700Z,0.85
2022-09-28T14:54:13.090Z,0.95
2022-09-28T15:05:02.477Z,1.10
2022-09-28T15:10:26.670Z,0.90
2022-09-28T15:15:38.832Z,0.73
2022-09-28T15:20:42.052Z,0.88
2022-09-28T15:25:52.359Z,0.75
2022-09-28T15:31:05.201Z,0.95
2022-09-28T15:36:08.626Z,1.08
2022-09-28T15:41:12.394Z,1.10
2022-09-28T15:46:21.084Z,0.90
2022-09-28T15:51:24.536Z,0.93
2022-09-28T15:56:27.378Z,1.00
2022-09-28T16:01:36.544Z,1.35
2022-09-28T16:06:40.824Z,0.90
2022-09-28T16:11:42.354Z,1.73
2022-09-28T16:16:47.828Z,1.10
2022-09-28T16:21:55.792Z,0.90
2022-09-28T16:27:01.254Z,0.88
2022-09-28T16:32:27.366Z,0.80
2022-09-28T16:37:32.415Z,0.90
2022-09-28T16:42:34.168Z,1.10
2022-09-28T16:47:35.996Z,0.90
2022-09-28T16:52:59.828Z,1.00
2022-09-28T16:58:04.514Z,1.05
2022-09-28T17:03:18.446Z,1.25
2022-09-28T17:08:22.221Z,1.25
2022-09-28T17:13:33.224Z,1.17
2022-09-28T17:18:39.105Z,1.48
2022-09-28T17:23:40.648Z,1.10
2022-09-28T17:28:42.152Z,1.05
2022-09-28T17:33:43.777Z,1.35
2022-09-28T17:38:46.778Z,1.45
2022-09-28T17:43:49.021Z,2.05
2022-09-28T17:48:50.538Z,1.92
2022-09-28T17:53:53.172Z,1.83
2022-09-28T17:58:56.372Z,1.65
2022-09-28T18:04:03.439Z,1.63
2022-09-28T18:09:05.386Z,1.35
2022-09-28T18:14:11.104Z,1.67
2022-09-28T18:19:13.029Z,1.80
2022-09-28T18:24:14.645Z,2.13
2022-09-28T18:29:19.376Z,1.70
2022-09-28T18:34:20.885Z,1.70
2022-09-28T18:39:23.781Z,2.40
2022-09-28T18:44:25.366Z,3.15
2022-09-28T18:49:26.886Z,3.58
2022-09-28T18:54:28.479Z,2.97
2022-09-28T18:59:30.128Z,2.30
2022-09-28T19:04:31.657Z,3.08
2022-09-28T19:09:34.112Z,3.85
2022-09-28T19:14:35.611Z,3.30
2022-09-28T19:19:37.158Z,4.00
2022-09-28T19:24:38.720Z,3.92
2022-09-28T19:29:40.224Z,3.83
2022-09-28T19:34:41.751Z,3.65
2022-09-28T19:39:43.312Z,3.58
2022-09-28T19:44:46.456Z,3.80
2022-09-28T19:49:49.109Z,3.58
2022-09-28T19:55:01.183Z,3.40
2022-09-28T20:00:04.195Z,4.63
2022-09-28T20:05:08.976Z,3.17
2022-09-28T20:10:11.942Z,3.53
2022-09-28T20:15:13.584Z,3.30
2022-09-28T20:20:15.370Z,3.63
2022-09-28T20:25:16.986Z,4.28
2022-09-28T20:30:18.639Z,4.38
2022-09-28T20:35:32.367Z,4.25
2022-09-28T20:40:38.523Z,4.57
2022-09-28T20:45:40.071Z,4.85
2022-09-28T20:50:42.624Z,5.18
2022-09-28T20:55:46.554Z,4.88
2022-09-28T21:00:48.067Z,4.15
2022-09-28T21:05:50.781Z,5.40
2022-09-28T21:10:56.111Z,5.57
2022-09-28T21:16:01.404Z,5.40
2022-09-28T21:21:06.160Z,5.22
2022-09-28T21:26:10.330Z,5.35
2022-09-28T21:31:12.902Z,5.47
2022-09-28T21:36:14.486Z,4.88
2022-09-28T21:41:16.409Z,5.00
2022-09-28T21:46:18.111Z,4.85
2022-09-28T21:51:20.231Z,4.40
2022-09-28T21:56:23.068Z,4.40
2022-09-28T22:01:26.080Z,4.18
2022-09-28T22:06:29.908Z,4.22
2022-09-28T22:11:31.452Z,3.80
2022-09-28T22:16:33.003Z,4.00
2022-09-28T22:21:34.938Z,3.45
2022-09-28T22:26:37.205Z,4.38
2022-09-28T22:31:42.220Z,4.30
2022-09-28T22:36:43.770Z,4.15
2022-09-28T22:41:46.105Z,4.30
2022-09-28T22:46:47.950Z,4.28
2022-09-28T22:51:49.702Z,4.40
2022-09-28T22:56:51.232Z,4.30
2022-09-28T23:01:52.839Z,4.47
2022-09-28T23:06:54.545Z,4.20
2022-09-28T23:11:56.105Z,4.78
2022-09-28T23:16:57.632Z,4.53
2022-09-28T23:21:59.303Z,4.28
2022-09-28T23:27:00.899Z,4.32
2022-09-28T23:32:02.436Z,4.05
2022-09-28T23:37:03.974Z,7.47
2022-09-28T23:42:05.677Z,17.17
2022-09-28T23:47:07.184Z,7.07
2022-09-28T23:52:08.916Z,6.55
2022-09-28T23:57:10.484Z,4.10
